Time;durP1;ratioP1;P1;durP2;ratioP2;P2;SDS_P1;SDS_P2;PMS_P1;PMS_P2;Temp;Humidity;BMP_temperature;BMP_pressure;BME280_temperature;BME280_humidity;BME280_pressure;Samples;Min_cycle;Max_cycle;Signal;HPM_P1;HPM_P2
2022/06/19 00:01:55;;;;;;;7.93;1.70;;;;;;;15.37;100.00;101282.81;5064576;28;20032;-77
2022/06/19 00:04:23;;;;;;;9.13;2.13;;;;;;;14.91;100.00;101331.34;5066032;28;20360;-75
2022/06/19 00:06:48;;;;;;;13.32;2.10;;;;;;;14.80;100.00;101368.50;5060300;28;20450;-77
2022/06/19 00:09:14;;;;;;;8.02;2.42;;;;;;;14.86;100.00;101403.19;5085239;28;20164;-76
2022/06/19 00:11:40;;;;;;;7.15;2.20;;;;;;;14.78;100.00;101435.03;5083217;28;20363;-75
2022/06/19 00:14:05;;;;;;;12.85;2.45;;;;;;;14.74;100.00;101452.47;5063044;28;20039;-77
2022/06/19 00:16:31;;;;;;;6.10;2.00;;;;;;;14.88;100.00;101470.78;5066360;28;20167;-76
2022/06/19 00:18:57;;;;;;;10.90;2.13;;;;;;;14.88;100.00;101487.34;5064447;28;20035;-76
2022/06/19 00:21:27;;;;;;;7.22;1.98;;;;;;;14.91;100.00;101488.72;5063792;28;20027;-75
2022/06/19 00:23:52;;;;;;;9.95;2.10;;;;;;;14.90;100.00;101473.25;5102553;28;20019;-75
2022/06/19 00:26:17;;;;;;;16.08;2.55;;;;;;;14.97;100.00;101426.78;5102436;28;20401;-75
2022/06/19 00:28:46;;;;;;;9.27;2.38;;;;;;;15.14;100.00;101389.53;5063946;28;20092;-77
2022/06/19 00:31:15;;;;;;;12.27;2.70;;;;;;;15.15;100.00;101367.16;5102559;28;20030;-75
2022/06/19 00:33:40;;;;;;;11.32;2.30;;;;;;;15.10;100.00;101378.25;5077787;28;20079;-76
2022/06/19 00:36:06;;;;;;;8.38;2.17;;;;;;;15.19;100.00;101381.16;5048540;28;20044;-75
2022/06/19 00:38:32;;;;;;;13.00;2.33;;;;;;;15.18;100.00;101383.13;5027403;28;20059;-75
2022/06/19 00:40:59;;;;;;;9.23;1.90;;;;;;;14.94;100.00;101380.44;5083018;28;20484;-74
2022/06/19 00:43:26;;;;;;;11.68;2.53;;;;;;;14.99;100.00;101385.88;5084168;28;20122;-75
2022/06/19 00:45:53;;;;;;;13.07;1.98;;;;;;;15.18;100.00;101402.47;5085983;28;20016;-77
2022/06/19 00:48:31;;;;;;;8.88;1.45;;;;;;;14.91;100.00;101422.44;5101327;28;20027;-74
2022/06/19 00:51:00;;;;;;;7.97;1.40;;;;;;;15.05;100.00;101419.75;5096896;28;20042;-76
2022/06/19 00:53:45;;;;;;;9.02;1.50;;;;;;;15.05;100.00;101411.47;5076293;28;20190;-77
2022/06/19 00:56:20;;;;;;;8.77;1.73;;;;;;;15.06;100.00;101411.16;5080773;28;20020;-77
2022/06/19 00:58:47;;;;;;;8.80;1.77;;;;;;;15.09;100.00;101403.44;5069641;28;20020;-77
2022/06/19 01:01:20;;;;;;;8.07;1.80;;;;;;;15.00;100.00;101398.59;5101779;28;20084;-76
2022/06/19 01:03:51;;;;;;;12.10;2.22;;;;;;;15.07;100.00;101401.78;5100531;28;20214;-75
2022/06/19 01:06:16;;;;;;;7.97;2.03;;;;;;;15.23;100.00;101405.13;5084111;28;20054;-75
2022/06/19 01:08:42;;;;;;;10.45;2.08;;;;;;;15.12;100.00;101408.31;5080818;28;20532;-76
2022/06/19 01:11:08;;;;;;;10.52;2.03;;;;;;;15.11;100.00;101406.72;5065782;28;20039;-76
2022/06/19 01:13:36;;;;;;;8.27;2.10;;;;;;;15.16;100.00;101406.63;5083469;28;20052;-76
2022/06/19 01:16:03;;;;;;;14.68;2.85;;;;;;;15.05;100.00;101403.19;5085716;28;20027;-76
2022/06/19 01:18:32;;;;;;;12.88;2.45;;;;;;;15.09;100.00;101404.25;5099617;28;20058;-75
2022/06/19 01:21:13;;;;;;;18.38;2.88;;;;;;;15.09;100.00;101390.44;5104090;28;20106;-76
2022/06/19 01:23:51;;;;;;;16.08;2.70;;;;;;;15.02;100.00;101374.25;5081120;28;20023;-74
2022/06/19 01:26:19;;;;;;;9.38;3.00;;;;;;;15.01;100.00;101364.31;5102593;28;20288;-76
2022/06/19 01:28:45;;;;;;;11.90;2.28;;;;;;;14.96;100.00;101338.72;5083666;28;20448;-76
2022/06/19 01:31:15;;;;;;;8.32;2.60;;;;;;;15.15;100.00;101335.94;5102224;28;20265;-75
2022/06/19 01:36:53;;;;;;;9.55;2.10;;;;;;;14.98;100.00;101326.25;5099776;28;20473;-74
2022/06/19 01:39:19;;;;;;;13.98;2.33;;;;;;;14.97;100.00;101337.59;5081803;28;20040;-76
2022/06/19 01:41:45;;;;;;;10.93;2.17;;;;;;;14.87;100.00;101424.97;5059997;28;20106;-78
2022/06/19 01:44:10;;;;;;;14.38;2.50;;;;;;;14.89;100.00;101505.56;5075052;28;20477;-74
2022/06/19 01:46:35;;;;;;;12.13;3.03;;;;;;;14.81;100.00;101530.25;5043274;28;20557;-78
2022/06/19 01:49:02;;;;;;;11.80;2.72;;;;;;;14.83;100.00;101501.22;5062605;28;20024;-80
2022/06/19 01:51:31;;;;;;;13.48;2.40;;;;;;;14.89;100.00;101419.16;5062439;28;20291;-75
2022/06/19 01:54:01;;;;;;;12.30;2.30;;;;;;;14.87;100.00;101339.41;5061239;28;20032;-77
2022/06/19 01:56:33;;;;;;;10.00;2.25;;;;;;;14.99;100.00;101292.00;5079373;28;20589;-76
2022/06/19 01:59:05;;;;;;;10.10;2.47;;;;;;;15.03;100.00;101294.97;5083696;28;20038;-76
2022/06/19 02:01:34;;;;;;;11.37;2.30;;;;;;;14.87;100.00;101352.38;5081509;28;20035;-74
2022/06/19 02:04:00;;;;;;;12.65;2.55;;;;;;;14.76;100.00;101389.50;5084058;28;20371;-76
2022/06/19 02:06:48;;;;;;;13.10;2.58;;;;;;;14.80;100.00;101340.88;5076744;28;20032;-75
2022/06/19 02:09:17;;;;;;;10.52;2.22;;;;;;;14.91;100.00;101358.94;5061514;28;20466;-75
2022/06/19 02:11:43;;;;;;;13.48;2.83;;;;;;;14.77;100.00;101507.09;5062811;28;20718;-76
2022/06/19 02:14:11;;;;;;;12.77;2.80;;;;;;;14.75;100.00;101592.13;5062763;28;20063;-76
2022/06/19 02:16:40;;;;;;;13.70;2.60;;;;;;;14.92;100.00;101597.19;5078819;28;20028;-77
2022/06/19 02:19:08;;;;;;;14.48;2.55;;;;;;;15.25;100.00;101502.31;5080629;28;20024;-77
2022/06/19 02:21:38;;;;;;;11.77;2.67;;;;;;;15.25;100.00;101353.16;5061560;28;20034;-75
2022/06/19 02:24:06;;;;;;;12.15;2.25;;;;;;;14.93;100.00;101235.22;5061582;28;20020;-74
2022/06/19 02:26:37;;;;;;;14.07;2.80;;;;;;;14.43;100.00;101161.25;5047212;28;20184;-76
2022/06/19 02:29:06;;;;;;;16.27;2.85;;;;;;;14.07;100.00;101188.50;5063459;28;20473;-74
2022/06/19 02:31:36;;;;;;;10.80;2.47;;;;;;;13.30;100.00;101176.50;5068911;28;20297;-75
2022/06/19 02:34:08;;;;;;;13.45;3.20;;;;;;;13.40;100.00;101137.06;5101360;28;20020;-76
2022/06/19 02:36:43;;;;;;;13.90;2.75;;;;;;;13.23;100.00;101124.53;5082451;28;20057;-75
2022/06/19 02:39:35;;;;;;;14.55;2.85;;;;;;;13.17;100.00;101098.19;5081106;28;20047;-76
2022/06/19 02:42:20;;;;;;;13.05;2.70;;;;;;;13.08;100.00;101088.91;5081714;28;20027;-75
2022/06/19 02:44:55;;;;;;;14.15;2.38;;;;;;;12.93;100.00;101078.91;5096547;28;20023;-75
2022/06/19 02:47:23;;;;;;;10.35;2.40;;;;;;;12.85;100.00;101076.78;5075111;28;20016;-75
2022/06/19 02:49:48;;;;;;;7.63;2.10;;;;;;;12.97;100.00;101081.88;5065839;28;20034;-75
2022/06/19 02:52:14;;;;;;;7.57;1.60;;;;;;;12.95;100.00;101076.66;5060566;28;20030;-74
2022/06/19 02:54:40;;;;;;;8.13;1.85;;;;;;;12.76;100.00;101062.88;5078964;28;20071;-75
2022/06/19 02:57:08;;;;;;;9.05;1.75;;;;;;;12.69;100.00;101065.97;5049124;28;20026;-76
2022/06/19 02:59:35;;;;;;;9.60;2.10;;;;;;;12.71;100.00;101078.59;5092410;28;20023;-76
2022/06/19 03:02:02;;;;;;;9.52;1.92;;;;;;;12.85;100.00;101113.41;5064311;28;20457;-75
2022/06/19 03:04:37;;;;;;;11.15;2.28;;;;;;;12.88;100.00;101123.81;5080803;28;20087;-77
2022/06/19 03:07:03;;;;;;;8.15;2.30;;;;;;;12.93;100.00;101146.91;5086481;28;20024;-76
2022/06/19 03:09:28;;;;;;;8.00;2.15;;;;;;;13.09;100.00;101161.31;5080636;28;20035;-77
2022/06/19 03:11:54;;;;;;;10.35;1.92;;;;;;;13.31;100.00;101182.81;5091144;28;20449;-76
2022/06/19 03:14:19;;;;;;;8.40;2.40;;;;;;;13.30;100.00;101175.66;5099010;28;20028;-75
2022/06/19 03:16:45;;;;;;;6.53;2.08;;;;;;;13.34;100.00;101193.28;5082415;28;20091;-74
2022/06/19 03:19:14;;;;;;;8.82;2.17;;;;;;;13.38;100.00;101208.94;5064902;28;20080;-76
2022/06/19 03:21:40;;;;;;;6.85;2.00;;;;;;;13.47;100.00;101205.56;5085095;28;20483;-76
2022/06/19 03:24:06;;;;;;;10.15;2.03;;;;;;;13.48;100.00;101212.69;5067556;28;20252;-76
2022/06/19 03:26:32;;;;;;;11.68;1.90;;;;;;;13.40;100.00;101181.94;5069405;28;20032;-76
2022/06/19 03:28:58;;;;;;;11.35;2.55;;;;;;;13.07;100.00;101156.09;5056247;28;20270;-77
2022/06/19 03:31:26;;;;;;;10.80;3.20;;;;;;;13.16;100.00;101179.13;5102710;28;20040;-75
2022/06/19 03:33:52;;;;;;;7.50;2.08;;;;;;;13.40;100.00;101175.59;5097625;28;20019;-76
2022/06/19 03:36:19;;;;;;;12.13;2.38;;;;;;;13.67;100.00;101161.22;5086045;28;21469;-76
2022/06/19 03:38:51;;;;;;;10.80;2.88;;;;;;;13.56;100.00;101133.00;5103016;28;20074;-76
2022/06/19 03:41:17;;;;;;;12.73;2.53;;;;;;;13.33;100.00;101155.84;5085018;28;20034;-74
2022/06/19 03:43:43;;;;;;;11.90;2.17;;;;;;;12.90;100.00;101202.50;5103619;28;20039;-74
2022/06/19 03:46:14;;;;;;;8.68;2.50;;;;;;;13.05;100.00;101192.19;5086307;28;20031;-74
2022/06/19 03:48:43;;;;;;;12.52;2.80;;;;;;;13.08;100.00;101182.50;5101023;28;20027;-75
2022/06/19 03:51:10;;;;;;;15.25;3.08;;;;;;;13.12;100.00;101128.53;5091510;28;20210;-75
2022/06/19 03:53:35;;;;;;;8.95;1.90;;;;;;;12.95;100.00;101128.16;5083794;28;20111;-75
2022/06/19 03:56:02;;;;;;;12.80;2.28;;;;;;;12.52;100.00;101086.75;5060565;28;20405;-76
2022/06/19 03:58:45;;;;;;;12.02;2.42;;;;;;;12.59;100.00;101040.47;5065337;28;20455;-76
2022/06/19 04:01:13;;;;;;;13.38;2.47;;;;;;;12.05;100.00;101180.59;5066125;28;20027;-76
2022/06/19 04:03:41;;;;;;;12.82;2.88;;;;;;;11.89;100.00;101165.25;5062928;28;20189;-77
2022/06/19 04:06:08;;;;;;;16.88;3.25;;;;;;;11.92;100.00;101151.81;5055092;28;20031;-76
2022/06/19 04:08:34;;;;;;;11.30;2.80;;;;;;;12.01;100.00;101173.19;5086019;28;20047;-77
2022/06/19 04:10:59;;;;;;;17.45;3.05;;;;;;;12.01;100.00;101182.25;5065547;28;20135;-77
2022/06/19 04:13:25;;;;;;;11.45;2.70;;;;;;;12.18;100.00;101159.88;5060673;28;20184;-75
2022/06/19 04:15:50;;;;;;;13.60;2.72;;;;;;;12.37;100.00;101151.78;5062146;28;20016;-76
2022/06/19 04:18:16;;;;;;;11.40;2.80;;;;;;;12.47;100.00;101179.19;5063903;28;20035;-75
2022/06/19 04:20:44;;;;;;;11.43;2.47;;;;;;;12.46;100.00;101218.81;5081727;28;20456;-74
2022/06/19 04:23:11;;;;;;;13.30;2.67;;;;;;;12.37;100.00;101228.75;5083853;28;20859;-73
2022/06/19 04:25:37;;;;;;;18.27;3.30;;;;;;;12.36;100.00;101207.84;5092126;28;20047;-75
2022/06/19 04:28:03;;;;;;;14.52;2.58;;;;;;;12.54;100.00;101222.84;5083240;28;20698;-74
2022/06/19 04:30:28;;;;;;;13.98;2.70;;;;;;;12.54;100.00;101238.56;5082354;28;20035;-76
2022/06/19 04:32:54;;;;;;;14.43;3.10;;;;;;;12.64;100.00;101260.47;5080769;28;20032;-75
2022/06/19 04:35:19;;;;;;;12.15;2.78;;;;;;;12.80;100.00;101269.44;5066750;28;20350;-75
2022/06/19 04:37:45;;;;;;;10.00;2.65;;;;;;;12.96;100.00;101268.22;5066893;28;20365;-73
2022/06/19 04:40:12;;;;;;;13.50;3.08;;;;;;;12.81;100.00;101260.91;5065034;28;20147;-75
2022/06/19 04:42:38;;;;;;;14.32;3.05;;;;;;;12.83;100.00;101266.94;5070213;28;20123;-76
2022/06/19 04:45:03;;;;;;;11.75;3.05;;;;;;;12.96;100.00;101270.97;5064967;28;20176;-75
2022/06/19 04:47:31;;;;;;;12.98;2.60;;;;;;;12.99;100.00;101267.66;5048562;28;20158;-74
2022/06/19 04:49:56;;;;;;;15.32;2.65;;;;;;;13.08;100.00;101270.59;5033268;28;20027;-75
2022/06/19 04:52:22;;;;;;;11.32;2.30;;;;;;;13.15;100.00;101260.09;5085456;28;20043;-76
2022/06/19 04:54:48;;;;;;;11.48;2.40;;;;;;;13.15;100.00;101254.59;5043617;28;20028;-75
2022/06/19 04:57:14;;;;;;;13.95;2.65;;;;;;;13.09;100.00;101261.22;5086278;28;20026;-77
2022/06/19 04:59:39;;;;;;;12.35;2.90;;;;;;;13.05;100.00;101252.75;5093201;28;20032;-75
2022/06/19 05:02:05;;;;;;;13.68;2.58;;;;;;;13.29;100.00;101253.91;5046001;28;20368;-75
2022/06/19 05:04:30;;;;;;;13.43;2.40;;;;;;;13.25;100.00;101281.19;5062405;28;20431;-73
2022/06/19 05:06:56;;;;;;;13.38;2.80;;;;;;;13.16;100.00;101277.41;5081441;28;20047;-76
2022/06/19 05:09:23;;;;;;;15.73;2.92;;;;;;;13.13;100.00;101276.03;5030274;28;20028;-75
2022/06/19 05:11:48;;;;;;;14.02;2.92;;;;;;;13.18;100.00;101272.44;5081345;28;20020;-75
2022/06/19 05:14:14;;;;;;;13.85;2.95;;;;;;;13.20;100.00;101265.53;5046490;28;20356;-73
2022/06/19 05:16:40;;;;;;;13.52;3.30;;;;;;;13.29;100.00;101253.91;5072848;28;20023;-75
2022/06/19 05:19:05;;;;;;;14.15;3.20;;;;;;;13.16;100.00;101269.97;5063563;28;20761;-74
2022/06/19 05:21:30;;;;;;;13.30;3.45;;;;;;;13.34;100.00;101278.66;5063280;28;20203;-74
2022/06/19 05:23:56;;;;;;;17.92;3.67;;;;;;;13.49;100.00;101270.22;5089182;28;20043;-75
2022/06/19 05:26:33;;;;;;;15.45;3.30;;;;;;;13.19;100.00;101254.81;5048148;28;20042;-76
2022/06/19 05:28:59;;;;;;;14.95;3.88;;;;;;;13.36;100.00;101243.38;5080199;28;20111;-75
2022/06/19 05:31:26;;;;;;;13.60;3.80;;;;;;;13.36;100.00;101222.19;5065339;28;20139;-76
2022/06/19 05:33:52;;;;;;;14.45;3.70;;;;;;;13.39;100.00;101224.34;5079814;28;20024;-75
2022/06/19 05:36:18;;;;;;;16.73;4.00;;;;;;;13.50;100.00;101232.50;5056934;28;20057;-75
2022/06/19 05:38:50;;;;;;;17.55;3.58;;;;;;;13.43;100.00;101238.38;5099571;28;20446;-77
2022/06/19 05:41:15;;;;;;;13.23;4.18;;;;;;;13.43;100.00;101265.91;5088165;28;20028;-75
2022/06/19 05:43:42;;;;;;;11.98;3.75;;;;;;;13.40;100.00;101289.34;5080468;28;20190;-76
2022/06/19 05:46:14;;;;;;;13.38;4.65;;;;;;;13.37;100.00;101305.63;5061053;28;20028;-76
2022/06/19 05:48:42;;;;;;;16.70;4.78;;;;;;;13.38;100.00;101316.34;5089165;28;20028;-75
2022/06/19 05:51:14;;;;;;;15.20;4.85;;;;;;;13.47;100.00;101318.47;5056518;28;20400;-75
2022/06/19 05:53:44;;;;;;;15.45;4.80;;;;;;;13.46;100.00;101319.56;5081465;28;20027;-75
2022/06/19 05:56:10;;;;;;;19.20;4.75;;;;;;;13.34;100.00;101328.22;5090826;28;20450;-76
2022/06/19 05:58:41;;;;;;;19.50;4.40;;;;;;;13.63;100.00;101325.47;5083770;28;20027;-76
2022/06/19 06:01:08;;;;;;;17.45;4.55;;;;;;;13.51;100.00;101338.81;5063843;28;20028;-76
2022/06/19 06:03:34;;;;;;;18.00;4.43;;;;;;;13.61;100.00;101374.53;5071909;28;20030;-75
2022/06/19 06:06:05;;;;;;;14.23;3.50;;;;;;;13.57;100.00;101384.47;5087732;28;20023;-76
2022/06/19 06:08:33;;;;;;;14.95;3.60;;;;;;;13.72;100.00;101397.28;5083486;28;20064;-77
2022/06/19 06:10:59;;;;;;;17.13;3.80;;;;;;;13.64;100.00;101398.72;5099259;28;20049;-76
2022/06/19 06:13:25;;;;;;;18.95;3.80;;;;;;;13.82;100.00;101419.25;5066269;28;20032;-76
2022/06/19 06:15:51;;;;;;;16.23;3.53;;;;;;;13.90;100.00;101431.56;5091001;28;20043;-77
2022/06/19 06:18:17;;;;;;;20.23;4.60;;;;;;;13.62;100.00;101441.47;5044624;28;20028;-75
2022/06/19 06:20:43;;;;;;;12.68;3.22;;;;;;;13.79;100.00;101467.50;5061145;28;20028;-76
2022/06/19 06:23:08;;;;;;;16.05;4.15;;;;;;;13.66;100.00;101473.69;5083122;28;20050;-75
2022/06/19 06:25:34;;;;;;;13.38;4.68;;;;;;;13.76;100.00;101473.59;5061525;28;20032;-76
2022/06/19 06:28:00;;;;;;;18.00;4.97;;;;;;;13.82;100.00;101479.88;5097611;28;20031;-78
2022/06/19 06:30:25;;;;;;;19.77;5.57;;;;;;;13.81;100.00;101480.16;5073313;28;20117;-78
2022/06/19 06:32:52;;;;;;;14.02;5.00;;;;;;;13.97;100.00;101479.75;5063556;28;20040;-77
2022/06/19 06:35:17;;;;;;;15.63;5.25;;;;;;;13.84;100.00;101485.94;5074571;28;20430;-76
2022/06/19 06:37:43;;;;;;;17.95;5.28;;;;;;;13.69;100.00;101480.53;5083507;28;20020;-76
2022/06/19 06:40:10;;;;;;;20.42;6.13;;;;;;;13.81;100.00;101475.50;5085526;28;20046;-77
2022/06/19 06:42:36;;;;;;;16.90;5.70;;;;;;;13.96;100.00;101475.34;5083397;28;20032;-76
2022/06/19 06:45:02;;;;;;;15.07;5.78;;;;;;;13.96;100.00;101474.53;5067530;28;20056;-77
2022/06/19 06:47:30;;;;;;;19.85;6.72;;;;;;;13.72;100.00;101466.19;5069342;28;20169;-78
2022/06/19 06:49:56;;;;;;;18.85;6.90;;;;;;;13.91;100.00;101472.63;5050219;28;20024;-77
2022/06/19 06:52:21;;;;;;;21.98;7.63;;;;;;;13.72;100.00;101466.19;5054201;28;20439;-77
2022/06/19 06:54:46;;;;;;;22.38;8.65;;;;;;;13.81;100.00;101456.19;5105717;28;20511;-76
2022/06/19 06:57:12;;;;;;;18.85;7.40;;;;;;;13.70;100.00;101468.41;5061674;28;20079;-76
2022/06/19 06:59:37;;;;;;;18.13;7.47;;;;;;;13.48;100.00;101483.47;5063670;28;20031;-77
2022/06/19 07:02:05;;;;;;;20.13;7.30;;;;;;;13.59;100.00;101495.22;5084114;28;20059;-76
2022/06/19 07:04:31;;;;;;;21.58;6.43;;;;;;;13.62;100.00;101500.16;5081078;28;20077;-76
2022/06/19 07:06:56;;;;;;;19.55;5.75;;;;;;;13.33;100.00;101513.84;5085281;28;20023;-76
2022/06/19 07:09:22;;;;;;;15.98;5.10;;;;;;;13.42;100.00;101521.22;5086792;28;20111;-76
2022/06/19 07:11:48;;;;;;;16.65;5.20;;;;;;;13.33;100.00;101524.84;5084626;28;20028;-75
2022/06/19 07:14:15;;;;;;;22.45;5.65;;;;;;;13.47;100.00;101523.13;5103930;28;20490;-76
2022/06/19 07:16:41;;;;;;;17.65;5.15;;;;;;;13.65;100.00;101523.56;5105248;28;20028;-76
2022/06/19 07:19:07;;;;;;;16.77;5.38;;;;;;;13.72;100.00;101519.34;5095593;28;20093;-75
2022/06/19 07:21:33;;;;;;;19.33;5.13;;;;;;;13.69;100.00;101527.38;5049042;28;20024;-75
2022/06/19 07:23:59;;;;;;;18.67;5.93;;;;;;;13.78;100.00;101531.19;5075538;28;20059;-76
2022/06/19 07:26:26;;;;;;;17.92;5.35;;;;;;;13.91;100.00;101530.53;5084299;28;20446;-75
2022/06/19 07:28:51;;;;;;;19.27;5.97;;;;;;;13.72;100.00;101533.13;5068414;28;20030;-75
2022/06/19 07:31:17;;;;;;;19.45;6.80;;;;;;;13.69;100.00;101530.13;5083164;28;20231;-75
2022/06/19 07:33:51;;;;;;;18.45;5.80;;;;;;;13.81;100.00;101533.38;5062699;28;20390;-75
2022/06/19 07:36:19;;;;;;;19.05;6.10;;;;;;;13.73;100.00;101520.19;5096141;28;20058;-75
2022/06/19 07:38:45;;;;;;;17.35;6.15;;;;;;;13.97;100.00;101504.56;5079966;28;20220;-76
2022/06/19 07:41:10;;;;;;;17.20;6.07;;;;;;;14.04;100.00;101500.66;5069189;28;20740;-77
2022/06/19 07:43:35;;;;;;;17.25;7.03;;;;;;;14.03;100.00;101482.47;5082294;28;20465;-77
2022/06/19 07:46:01;;;;;;;18.55;6.78;;;;;;;13.87;100.00;101485.38;5067042;28;20441;-76
2022/06/19 07:51:10;;;;;;;22.05;7.40;;;;;;;13.86;100.00;101469.13;5072601;28;20066;-75
2022/06/19 07:53:38;;;;;;;18.13;6.63;;;;;;;14.13;100.00;101452.88;5077231;28;20048;-75
2022/06/19 07:56:04;;;;;;;19.63;6.95;;;;;;;14.13;100.00;101444.59;5078329;28;20035;-75
2022/06/19 07:58:30;;;;;;;19.83;6.45;;;;;;;14.19;100.00;101433.50;5095174;28;20031;-76
2022/06/19 08:00:55;;;;;;;15.15;5.97;;;;;;;13.97;100.00;101419.09;5105187;28;20438;-76
2022/06/19 08:03:20;;;;;;;17.02;5.72;;;;;;;13.79;100.00;101425.34;5064298;28;20190;-77
2022/06/19 08:05:46;;;;;;;15.95;4.93;;;;;;;14.01;100.00;101421.28;5091684;28;20493;-76
2022/06/19 08:08:19;;;;;;;15.25;5.03;;;;;;;14.02;100.00;101420.16;5082662;28;20031;-78
2022/06/19 08:10:49;;;;;;;14.02;4.90;;;;;;;14.06;100.00;101405.50;5080686;28;20078;-75
2022/06/19 08:13:19;;;;;;;15.32;5.20;;;;;;;14.15;100.00;101402.94;5082723;28;20120;-76
2022/06/19 08:15:45;;;;;;;15.07;4.65;;;;;;;14.08;100.00;101395.00;5082426;28;20503;-76
2022/06/19 08:18:10;;;;;;;15.52;4.63;;;;;;;14.15;100.00;101402.94;5058624;28;20552;-76
2022/06/19 08:20:36;;;;;;;16.85;5.15;;;;;;;14.14;100.00;101401.28;5083381;28;20023;-75
2022/06/19 08:23:03;;;;;;;16.80;5.35;;;;;;;14.07;100.00;101400.81;5082408;28;20477;-75
2022/06/19 08:25:28;;;;;;;12.00;5.10;;;;;;;14.11;100.00;101402.69;5031676;28;20134;-77
2022/06/19 08:27:54;;;;;;;13.73;4.57;;;;;;;14.42;100.00;101401.53;5049135;28;20047;-76
2022/06/19 08:30:23;;;;;;;14.15;4.75;;;;;;;14.36;100.00;101405.47;5102084;28;20454;-76
2022/06/19 08:32:49;;;;;;;15.32;5.00;;;;;;;14.45;100.00;101400.94;5088863;28;20320;-75
2022/06/19 08:35:15;;;;;;;14.35;4.57;;;;;;;14.34;100.00;101392.78;5059058;28;20242;-76
2022/06/19 08:37:42;;;;;;;14.95;4.80;;;;;;;14.39;100.00;101391.88;5063626;28;20478;-76
2022/06/19 08:40:21;;;;;;;13.70;4.63;;;;;;;14.59;100.00;101398.28;5081859;28;20119;-78
2022/06/19 08:43:11;;;;;;;13.25;4.38;;;;;;;14.21;100.00;101387.97;5061346;28;20027;-76
2022/06/19 08:45:52;;;;;;;25.60;4.40;;;;;;;14.41;100.00;101391.59;5082480;28;20134;-76
2022/06/19 08:48:24;;;;;;;17.20;3.20;;;;;;;14.09;100.00;101388.38;5059561;28;20015;-76
2022/06/19 08:51:33;;;;;;;15.27;3.80;;;;;;;14.28;100.00;101393.97;5089018;28;20081;-75
2022/06/19 08:54:04;;;;;;;11.00;2.97;;;;;;;14.25;100.00;101408.34;5008467;28;20034;-76
2022/06/19 08:56:48;;;;;;;9.77;3.20;;;;;;;14.20;100.00;101407.56;5065182;28;20039;-76
2022/06/19 08:59:17;;;;;;;12.38;2.88;;;;;;;14.41;100.00;101400.69;5083683;28;20538;-77
2022/06/19 09:02:13;;;;;;;8.10;2.50;;;;;;;14.27;100.00;101394.25;5084395;28;20046;-76
2022/06/19 09:08:02;;;;;;;8.23;2.05;;;;;;;13.83;100.00;101387.81;5103445;28;20034;-76
2022/06/19 09:10:40;;;;;;;6.43;1.70;;;;;;;14.25;100.00;101379.91;5082953;28;20038;-75
2022/06/19 09:13:31;;;;;;;7.32;1.73;;;;;;;14.41;100.00;101384.13;5100223;28;20027;-77
2022/06/19 09:16:05;;;;;;;7.35;2.00;;;;;;;14.77;100.00;101377.38;5067148;28;20027;-77
2022/06/19 09:19:02;;;;;;;5.68;1.42;;;;;;;14.86;100.00;101356.25;5063083;28;20218;-76
2022/06/19 09:21:33;;;;;;;10.45;1.48;;;;;;;14.83;100.00;101354.09;5101931;28;20219;-76
2022/06/19 09:24:11;;;;;;;6.10;1.85;;;;;;;14.88;100.00;101354.84;5085375;28;20058;-75
2022/06/19 09:26:59;;;;;;;6.00;1.45;;;;;;;15.18;100.00;101336.16;5071014;28;20050;-75
2022/06/19 09:29:28;;;;;;;7.13;1.67;;;;;;;15.41;100.00;101339.94;5078368;28;20315;-76
2022/06/19 09:32:00;;;;;;;8.30;2.15;;;;;;;16.00;100.00;101328.34;5082794;28;20205;-76
2022/06/19 09:34:29;;;;;;;6.32;1.63;;;;;;;15.82;100.00;101346.66;5078083;28;20062;-77
2022/06/19 09:36:57;;;;;;;9.15;2.05;;;;;;;16.37;100.00;101354.16;5084463;28;20027;-76
2022/06/19 09:39:35;;;;;;;6.50;2.00;;;;;;;15.58;100.00;101344.88;5084330;28;20473;-76
2022/06/19 09:42:13;;;;;;;6.53;1.70;;;;;;;15.83;100.00;101344.75;5078054;28;20028;-76
2022/06/19 09:44:44;;;;;;;7.18;1.73;;;;;;;15.58;100.00;101338.53;5062508;28;20035;-72
2022/06/19 09:47:15;;;;;;;5.43;1.60;;;;;;;15.89;100.00;101332.44;5079352;28;20023;-77
2022/06/19 09:49:49;;;;;;;6.43;1.50;;;;;;;15.99;100.00;101340.56;5082195;28;20072;-77
2022/06/19 09:52:20;;;;;;;5.32;1.80;;;;;;;16.23;100.00;101334.78;5082810;28;20024;-75
2022/06/19 09:55:01;;;;;;;8.82;1.52;;;;;;;15.80;100.00;101326.81;5078041;28;20031;-76
2022/06/19 09:57:32;;;;;;;5.30;1.70;;;;;;;15.15;100.00;101342.28;5086571;28;20430;-77
2022/06/19 10:00:23;;;;;;;6.20;1.40;;;;;;;15.22;100.00;101351.00;5082784;28;20390;-73
2022/06/19 10:03:18;;;;;;;7.05;1.80;;;;;;;15.37;100.00;101377.56;5080483;28;20062;-73
2022/06/19 10:05:44;;;;;;;9.05;1.70;;;;;;;15.61;100.00;101373.84;5091141;28;20111;-75
2022/06/19 10:08:19;;;;;;;4.13;1.38;;;;;;;15.90;100.00;101361.75;5060506;28;20529;-75
2022/06/19 10:10:54;;;;;;;7.05;1.80;;;;;;;16.57;100.00;101343.78;5071212;28;20119;-74
2022/06/19 10:13:33;;;;;;;8.18;1.80;;;;;;;16.35;100.00;101359.19;5080968;28;20354;-73
2022/06/19 10:16:01;;;;;;;6.75;1.70;;;;;;;15.89;100.00;101355.41;5097929;28;20016;-72
2022/06/19 10:18:33;;;;;;;7.78;1.35;;;;;;;16.34;100.00;101365.84;5083247;28;20023;-73
2022/06/19 10:22:13;;;;;;;6.05;1.67;;;;;;;16.64;100.00;101385.69;5087881;28;20028;-72
2022/06/19 10:24:41;;;;;;;4.35;1.77;;;;;;;16.05;100.00;101394.63;5089486;28;20111;-73
2022/06/19 10:27:33;;;;;;;5.55;1.73;;;;;;;16.28;100.00;101400.28;5098016;28;20103;-73
2022/06/19 10:30:04;;;;;;;5.13;1.75;;;;;;;16.16;100.00;101409.91;5085400;28;20267;-80
2022/06/19 10:32:34;;;;;;;6.50;1.52;;;;;;;15.52;100.00;101414.34;5066142;28;20043;-79
2022/06/19 10:35:23;;;;;;;8.93;1.92;;;;;;;15.66;100.00;101406.09;5065486;28;20116;-77
2022/06/19 10:38:20;;;;;;;7.90;1.73;;;;;;;15.61;100.00;101382.97;5070293;28;20042;-76
2022/06/19 10:41:03;;;;;;;10.43;2.22;;;;;;;16.31;100.00;101367.28;5091791;28;20067;-76
2022/06/19 10:43:38;;;;;;;;;;;;;;;16.02;100.00;101353.78;5063912;28;20065;-73
2022/06/19 10:46:08;;;;;;;3.78;1.63;;;;;;;16.51;100.00;101346.66;5071417;28;20030;-76
2022/06/19 10:48:48;;;;;;;7.50;1.83;;;;;;;15.98;100.00;101366.56;5086559;28;20215;-76
2022/06/19 10:51:39;;;;;;;6.15;1.90;;;;;;;15.88;100.00;101395.22;5087323;28;20442;-73
2022/06/19 10:54:54;;;;;;;7.10;1.98;;;;;;;15.56;100.00;101393.25;5087333;28;20027;-75
2022/06/19 10:57:35;;;;;;;8.52;2.45;;;;;;;16.20;100.00;101371.41;5072851;28;20443;-75
2022/06/19 11:00:00;;;;;;;8.10;2.08;;;;;;;15.86;100.00;101378.13;5066690;28;20035;-74
2022/06/19 11:05:50;;;;;;;6.95;1.90;;;;;;;16.21;100.00;101350.06;5084942;28;20415;-74
2022/06/19 11:08:19;;;;;;;7.95;1.90;;;;;;;16.24;100.00;101350.28;5088720;28;20019;-75
2022/06/19 11:10:57;;;;;;;9.30;2.33;;;;;;;15.76;100.00;101364.50;5084710;28;20470;-75
2022/06/19 11:13:24;;;;;;;9.48;2.65;;;;;;;15.79;100.00;101381.28;5099657;28;20031;-77
2022/06/19 11:16:02;;;;;;;7.90;2.58;;;;;;;15.96;100.00;101377.94;5100828;28;20078;-76
2022/06/19 11:18:28;;;;;;;8.75;2.30;;;;;;;15.76;100.00;101384.66;5069045;28;20084;-76
2022/06/19 11:21:01;;;;;;;12.48;2.70;;;;;;;16.94;100.00;101384.25;5055151;28;20185;-76
2022/06/19 11:23:43;;;;;;;9.60;2.33;;;;;;;16.51;100.00;101370.75;5062455;28;20039;-76
2022/06/19 11:26:18;;;;;;;10.63;2.40;;;;;;;16.94;100.00;101358.47;5064871;28;20482;-76
2022/06/19 11:29:13;;;;;;;10.65;2.40;;;;;;;16.72;100.00;101360.03;5072976;28;20474;-74
2022/06/19 11:31:59;;;;;;;11.80;2.30;;;;;;;16.93;100.00;101395.63;5053957;28;20230;-75
2022/06/19 11:34:44;;;;;;;7.78;2.20;;;;;;;16.20;100.00;101423.13;5091138;28;20036;-76
2022/06/19 11:37:23;;;;;;;10.27;2.25;;;;;;;15.79;100.00;101447.63;5081850;28;20114;-75
2022/06/19 11:40:08;;;;;;;9.55;2.30;;;;;;;16.60;100.00;101471.31;5064933;28;20036;-77